메인 페이지
METAR-TAF:

METAR-TAF

공항 :

요한 바오로 2세 공항

Ponta Delgada, 아조레스, 포르투갈

위도: 37-44N, 경도: 025-42W, 고도: 71m

현재 날씨관측

예보는 36분 전, 15:30시(UTC)에 발표되었습니다.
4kt남남서풍과 서북서풍을 오가는
온도 15°C
습도 51%
기압 1023 hPa
시정 10km 이상
고도 2500ft 상공 구름 조금

METAR: LPPD 181530Z 26004KT 200V290 9999 FEW025 15/05 Q1023

시각: 15:06 (16:06 UTC)

예보

예보는 5 시간 6분 전, 11:00시(UTC)에 발표되었습니다.
예보 대상 시간: 18일 12시부터 19일 12시까지 (UTC)
여러 방향의 바람 5kt
시정 10km 이상
고도 2500ft 상공 구름 보통
전환 중
18일 21시부터 18일 24시까지 (UTC)
남남동13kt
고도 1200ft 상공 구름 보통
고도 2000ft 상공 구름 많음
일시적
19일 04시부터 19일 12시까지 (UTC)
시정: 5000m
고도 500ft 상공 구름 보통
고도 1200ft 상공 구름 많음
비, 이슬비, 박무
확률 30% :
일시적
19일 08시부터 19일 12시까지 (UTC)
시정: 2000m
고도 200ft 상공 구름 보통
고도 400ft 상공 구름 많음
강한이슬비, 박무
전환 중
19일 10시부터 19일 12시까지 (UTC)
남남서13kt

TAF: LPPD 181100Z 1812/1912 VRB05KT 9999 SCT025 BECMG 1821/1824 16013KT SCT012 BKN020 TEMPO 1904/1912 5000 RADZ BR SCT005 BKN012 PROB30 TEMPO 1908/1912 2000 +DZ BR SCT002 BKN004 BECMG 1910/1912 21013KT

4,000개 이상의 공항 관측 자료 및 예보 (METAR 및 TAF 보고).

지도상에서 검색 가능한 기상관측소가 노란 점과 빨간 점으로 표시되어 있습니다.

기상관측소 명을 보려면 표시 위로 마우스를 이동하세요.

날씨 관측과 예보를 보려면 클릭하세요.

지도 변경 : 확대하려면 엑스 표시가 있는 녹색 버튼, 축소하려면 빼기 표시가 있는 녹색 버튼, 다음 페이지의 지도를 보려면 녹색 화살표를 클릭하세요.


METAR-TAF: